KACB/ACB METAR and TAF weather

Enter ICAO airport designator
Station Type Date Time Source
KACB METAR 2020/12/05 04:55 UTC NOAA

KACB 050455Z AUTO 02003KT 10SM OVC030 00/M06 A3006 RMK AO2 T10051060


Station Type Date Time Source
KACB Decoded METAR 2020/12/05 04:55 UTC NOAA

Bellaire, Antrim County Airport, MI, United States (KACB) 44-59-18N 085-11-54W
Dec 04, 2020 - 11:55 PM EST / 2020.12.05 0455 UTC
Wind: from the NNE (020 degrees) at 3 MPH (3 KT):0
Visibility: 10 mile(s):0
Sky conditions: overcast
Temperature: 31.1 F (-0.5 C)
Dew Point: 21.2 F (-6.0 C)
Relative Humidity: 66%
Pressure (altimeter): 30.06 in. Hg (1017 hPa)
ob: KACB 050455Z AUTO 02003KT 10SM OVC030 00/M06 A3006 RMK AO2 T10051060
cycle: 5

Station Type Date Time Source
KACB TAF UTC NOAA

Error!

Example: see airport list